Time;durP1;ratioP1;P1;durP2;ratioP2;P2;SDS_P1;SDS_P2;PMS_P1;PMS_P2;Temp;Humidity;BMP_temperature;BMP_pressure;BME280_temperature;BME280_humidity;BME280_pressure;Samples;Min_cycle;Max_cycle;Signal;HPM_P1;HPM_P2
2023/03/01 00:04:48;;;;;;;13.90;9.67;;;0.70;99.90;;;;;;10332243;28;20279;-70
2023/03/01 00:09:49;;;;;;;14.20;9.33;;;0.70;99.90;;;;;;10334940;28;20256;-68
2023/03/01 00:14:49;;;;;;;13.23;9.67;;;0.60;99.90;;;;;;10325649;28;20225;-69
2023/03/01 00:19:53;;;;;;;12.67;8.90;;;0.60;99.90;;;;;;10328914;28;20214;-69
2023/03/01 00:24:54;;;;;;;13.27;9.37;;;0.50;99.90;;;;;;10327023;28;20218;-69
2023/03/01 00:29:54;;;;;;;14.57;9.70;;;0.50;99.90;;;;;;10336214;28;20693;-69
2023/03/01 00:34:55;;;;;;;16.37;10.00;;;0.50;99.90;;;;;;10337772;28;20213;-68
2023/03/01 00:39:58;;;;;;;14.17;9.23;;;0.50;99.90;;;;;;10345598;28;20224;-68
2023/03/01 00:44:59;;;;;;;13.47;9.73;;;0.40;99.90;;;;;;10335709;28;20214;-68
2023/03/01 00:50:00;;;;;;;13.87;9.53;;;0.40;99.90;;;;;;10357522;28;20689;-70
2023/03/01 00:55:00;;;;;;;12.80;9.17;;;0.40;99.90;;;;;;10335129;28;20249;-70
2023/03/01 01:00:01;;;;;;;14.33;9.53;;;0.40;99.90;;;;;;10339369;28;20222;-69
2023/03/01 01:05:01;;;;;;;14.30;9.43;;;0.40;99.90;;;;;;10331744;28;20218;-68
2023/03/01 01:10:02;;;;;;;14.10;9.63;;;0.40;99.90;;;;;;10334440;28;20284;-69
2023/03/01 01:15:03;;;;;;;16.33;10.00;;;0.40;99.90;;;;;;10340433;28;20257;-69
2023/03/01 01:20:04;;;;;;;15.53;9.43;;;0.40;99.90;;;;;;10331675;28;20727;-70
2023/03/01 01:25:05;;;;;;;12.13;8.73;;;0.40;99.90;;;;;;10346064;28;20237;-72
2023/03/01 01:30:07;;;;;;;16.10;9.77;;;0.40;99.90;;;;;;10337636;28;20230;-71
2023/03/01 01:35:07;;;;;;;13.87;9.57;;;0.40;99.90;;;;;;10331662;28;20182;-70
2023/03/01 01:40:09;;;;;;;13.33;9.67;;;0.40;99.90;;;;;;10336410;28;20229;-71
2023/03/01 01:45:41;;;;;;;14.03;10.20;;;0.40;99.90;;;;;;10336515;28;20285;-70
2023/03/01 01:50:44;;;;;;;16.90;10.13;;;0.40;99.90;;;;;;10314281;28;20234;-70
2023/03/01 01:55:51;;;;;;;18.17;11.23;;;0.40;99.90;;;;;;10329837;28;20253;-69
2023/03/01 02:00:53;;;;;;;14.17;10.40;;;0.40;99.90;;;;;;10336706;28;20585;-70
2023/03/01 02:06:01;;;;;;;15.50;10.30;;;0.40;99.90;;;;;;10333119;28;20222;-71
2023/03/01 02:11:04;;;;;;;16.17;10.47;;;0.40;99.90;;;;;;10351094;28;20300;-72
2023/03/01 02:33:56;;;;;;;18.27;10.47;;;0.30;99.90;;;;;;10324357;28;20309;-73
2023/03/01 02:38:59;;;;;;;14.77;10.13;;;0.20;99.90;;;;;;10331667;28;20237;-71
2023/03/01 02:44:00;;;;;;;16.63;10.63;;;0.20;99.90;;;;;;10332158;28;20272;-74
2023/03/01 02:49:00;;;;;;;14.20;10.13;;;0.20;99.90;;;;;;10331131;28;20768;-71
2023/03/01 02:54:08;;;;;;;13.93;10.73;;;0.20;99.90;;;;;;10385828;28;20306;-68
2023/03/01 02:59:10;;;;;;;14.40;11.03;;;0.20;99.90;;;;;;10332871;28;20232;-74
2023/03/01 03:04:18;;;;;;;18.97;11.40;;;0.30;99.90;;;;;;10357898;28;20370;-74
2023/03/01 03:09:19;;;;;;;15.57;10.87;;;0.30;99.90;;;;;;10339525;28;20217;-74
2023/03/01 03:14:19;;;;;;;15.23;10.50;;;0.30;99.90;;;;;;10329475;28;20597;-74
2023/03/01 03:19:23;;;;;;;18.37;10.87;;;0.30;99.90;;;;;;10327554;28;20292;-69
2023/03/01 03:24:23;;;;;;;17.23;10.87;;;0.20;99.90;;;;;;10347186;28;20310;-71
2023/03/01 03:29:24;;;;;;;17.80;11.73;;;0.20;99.90;;;;;;10332256;28;20317;-73
2023/03/01 03:34:24;;;;;;;15.30;10.90;;;0.20;99.90;;;;;;10334432;28;20253;-73
2023/03/01 03:39:34;;;;;;;17.10;12.03;;;0.20;99.90;;;;;;10333108;28;20219;-70
2023/03/01 03:44:36;;;;;;;14.67;10.60;;;0.20;99.90;;;;;;10327292;28;20221;-69
2023/03/01 03:49:36;;;;;;;17.20;11.17;;;0.20;99.90;;;;;;10331903;28;20355;-71
2023/03/01 03:54:37;;;;;;;15.87;11.80;;;0.20;99.90;;;;;;10323006;28;20284;-70
2023/03/01 03:59:37;;;;;;;16.47;11.13;;;0.20;99.90;;;;;;10331376;28;20884;-72
2023/03/01 04:04:38;;;;;;;17.20;11.60;;;0.30;99.90;;;;;;10330286;28;20271;-74
2023/03/01 04:09:39;;;;;;;14.33;10.97;;;0.30;99.90;;;;;;10332285;28;20221;-74
2023/03/01 04:14:42;;;;;;;18.63;11.73;;;0.30;99.90;;;;;;10340016;28;20738;-70
2023/03/01 04:19:43;;;;;;;17.07;11.87;;;0.40;99.90;;;;;;10338902;28;20222;-72
2023/03/01 04:24:44;;;;;;;15.93;11.20;;;0.40;99.90;;;;;;10350071;28;20646;-72
2023/03/01 04:29:45;;;;;;;18.47;12.30;;;0.40;99.90;;;;;;10340645;28;20288;-72
2023/03/01 04:34:45;;;;;;;15.43;11.47;;;0.50;99.90;;;;;;10339565;28;20423;-73
2023/03/01 04:39:47;;;;;;;19.77;13.03;;;0.50;99.90;;;;;;10333635;28;20224;-74
2023/03/01 04:44:47;;;;;;;18.13;11.73;;;0.50;99.90;;;;;;10334162;28;20256;-74
2023/03/01 04:49:48;;;;;;;15.80;11.00;;;0.50;99.90;;;;;;10336889;28;20253;-73
2023/03/01 04:54:48;;;;;;;17.73;12.03;;;0.50;99.90;;;;;;10332181;28;20210;-75
2023/03/01 04:59:52;;;;;;;17.83;11.13;;;0.50;99.90;;;;;;10340729;28;20221;-73
2023/03/01 05:04:57;;;;;;;14.87;11.50;;;0.40;99.90;;;;;;10347060;28;20222;-73
2023/03/01 05:09:57;;;;;;;18.33;11.87;;;0.40;99.90;;;;;;10336176;28;20280;-74
2023/03/01 05:14:58;;;;;;;20.70;12.43;;;0.40;99.90;;;;;;10336062;28;20280;-72
2023/03/01 05:19:59;;;;;;;17.07;11.80;;;0.40;99.90;;;;;;10334547;28;20237;-77
2023/03/01 05:25:00;;;;;;;21.23;13.30;;;0.50;99.90;;;;;;10331992;28;20244;-75
2023/03/01 05:30:13;;;;;;;16.27;11.80;;;0.50;99.90;;;;;;10331228;28;20324;-69
2023/03/01 05:35:16;;;;;;;15.77;12.07;;;0.50;99.90;;;;;;10330540;28;20221;-73
2023/03/01 05:40:23;;;;;;;18.00;12.57;;;0.50;99.90;;;;;;10334973;28;20209;-75
2023/03/01 05:45:27;;;;;;;17.57;12.03;;;0.50;99.90;;;;;;10332937;28;23386;-72
2023/03/01 05:50:30;;;;;;;17.63;12.63;;;0.50;99.90;;;;;;10339848;28;20245;-74
2023/03/01 05:55:30;;;;;;;21.70;13.33;;;0.50;99.90;;;;;;10330173;28;20218;-72
2023/03/01 06:00:32;;;;;;;18.83;11.90;;;0.50;99.90;;;;;;10338785;28;20225;-74
2023/03/01 06:05:33;;;;;;;19.03;12.47;;;0.50;99.90;;;;;;10351585;28;20967;-73
2023/03/01 06:10:33;;;;;;;20.30;12.33;;;0.60;99.90;;;;;;10341628;28;20282;-72
2023/03/01 06:15:37;;;;;;;19.27;11.93;;;0.60;99.90;;;;;;10322285;28;20217;-74
2023/03/01 06:20:38;;;;;;;21.13;13.60;;;0.60;99.90;;;;;;10334584;28;20226;-73
2023/03/01 06:25:38;;;;;;;20.77;13.37;;;0.70;99.90;;;;;;10334181;28;20229;-77
2023/03/01 06:30:39;;;;;;;19.57;12.90;;;0.70;99.90;;;;;;10335763;28;20280;-79
2023/03/01 06:35:40;;;;;;;19.17;12.03;;;0.80;99.90;;;;;;10328232;28;20225;-73
2023/03/01 06:40:42;;;;;;;19.33;12.47;;;1.00;99.90;;;;;;10334595;28;20288;-70
2023/03/01 06:45:43;;;;;;;17.63;12.20;;;1.10;99.90;;;;;;10346432;28;20224;-70
2023/03/01 06:50:43;;;;;;;19.77;12.00;;;1.20;99.90;;;;;;10331120;28;20239;-72
2023/03/01 06:55:44;;;;;;;18.67;12.47;;;1.30;99.90;;;;;;10377115;28;20229;-73
2023/03/01 07:00:44;;;;;;;18.77;13.00;;;1.40;99.90;;;;;;10374206;28;20218;-73
2023/03/01 07:05:45;;;;;;;15.40;11.50;;;1.50;99.90;;;;;;10341406;28;20229;-74
2023/03/01 07:10:46;;;;;;;18.20;12.20;;;1.60;99.90;;;;;;10332440;28;20749;-74
2023/03/01 07:15:48;;;;;;;15.40;12.50;;;1.80;99.90;;;;;;10356628;28;20244;-77
2023/03/01 07:20:50;;;;;;;19.07;12.50;;;2.10;99.90;;;;;;10331671;28;20229;-75
2023/03/01 07:25:54;;;;;;;20.43;12.03;;;2.30;99.90;;;;;;10355829;28;20256;-75
2023/03/01 07:31:01;;;;;;;13.93;10.73;;;3.30;99.90;;;;;;10337617;28;20244;-78
2023/03/01 07:36:03;;;;;;;13.23;10.83;;;4.50;99.90;;;;;;10327562;28;20228;-81
2023/03/01 07:41:05;;;;;;;14.30;11.10;;;5.50;99.90;;;;;;10334470;28;20229;-72
2023/03/01 07:46:06;;;;;;;14.93;11.47;;;6.30;99.90;;;;;;10349304;28;20256;-71
2023/03/01 07:51:07;;;;;;;16.90;11.63;;;6.80;99.90;;;;;;10329078;28;20234;-71
2023/03/01 07:56:11;;;;;;;16.10;11.73;;;7.00;97.30;;;;;;10335724;28;20251;-74
2023/03/01 08:01:15;;;;;;;15.27;10.87;;;8.00;95.20;;;;;;10350337;28;20690;-75
2023/03/01 08:06:17;;;;;;;14.07;11.30;;;8.90;91.60;;;;;;10342535;28;20250;-76
2023/03/01 08:11:18;;;;;;;13.23;10.70;;;9.70;86.20;;;;;;10338657;28;20229;-78
2023/03/01 08:16:18;;;;;;;13.47;10.93;;;9.90;82.90;;;;;;10341492;28;20223;-76
2023/03/01 08:21:19;;;;;;;15.47;10.83;;;10.30;76.70;;;;;;10346197;28;20213;-76
2023/03/01 08:26:21;;;;;;;12.83;9.50;;;10.90;73.50;;;;;;10347476;28;20217;-76
2023/03/01 08:31:25;;;;;;;12.83;10.97;;;11.20;70.00;;;;;;10359586;28;20641;-76
2023/03/01 08:36:31;;;;;;;15.13;11.47;;;11.40;67.70;;;;;;10332377;28;20218;-76
2023/03/01 08:41:32;;;;;;;17.33;11.47;;;11.20;66.60;;;;;;10328726;28;20223;-74
2023/03/01 08:46:36;;;;;;;14.03;10.80;;;12.30;64.30;;;;;;10327619;28;20226;-74
2023/03/01 08:51:38;;;;;;;12.43;10.37;;;12.80;62.80;;;;;;10333083;28;20252;-74
2023/03/01 08:56:39;;;;;;;15.20;10.77;;;12.90;59.60;;;;;;10323234;28;20331;-73
2023/03/01 09:01:43;;;;;;;13.37;10.10;;;13.10;58.20;;;;;;10354329;28;20313;-73
2023/03/01 09:06:43;;;;;;;15.40;11.27;;;13.20;56.60;;;;;;10330800;28;20633;-71
2023/03/01 09:11:45;;;;;;;14.00;11.07;;;12.90;57.10;;;;;;10336568;28;20262;-74
2023/03/01 09:16:46;;;;;;;14.97;10.83;;;13.20;56.50;;;;;;10352921;28;20880;-73
2023/03/01 09:21:52;;;;;;;15.33;11.33;;;13.60;55.00;;;;;;10341596;28;20315;-73
2023/03/01 09:26:56;;;;;;;13.97;10.97;;;13.70;54.90;;;;;;10339354;28;20219;-73
2023/03/01 09:31:58;;;;;;;13.57;11.53;;;14.20;53.20;;;;;;10341679;28;20246;-72
2023/03/01 09:36:59;;;;;;;14.13;11.43;;;14.50;52.40;;;;;;10337950;28;20226;-77
2023/03/01 09:42:04;;;;;;;14.13;10.87;;;14.20;52.00;;;;;;10335068;28;20891;-73
2023/03/01 09:47:09;;;;;;;13.90;11.20;;;14.70;50.90;;;;;;10323895;28;20231;-73
2023/03/01 09:52:30;;;;;;;17.23;12.33;;;15.10;50.10;;;;;;10334355;28;20235;-75
2023/03/01 09:57:50;;;;;;;14.33;11.93;;;14.80;49.40;;;;;;10347454;28;20262;-76
2023/03/01 10:03:32;;;;;;;13.40;11.67;;;15.20;48.70;;;;;;10322598;28;20220;-74
2023/03/01 10:08:53;;;;;;;13.87;11.87;;;15.30;49.00;;;;;;10323418;28;20228;-74
2023/03/01 10:14:00;;;;;;;12.77;11.40;;;16.30;47.40;;;;;;10330053;28;20318;-76
2023/03/01 10:19:04;;;;;;;13.47;11.67;;;16.80;46.00;;;;;;10335436;28;20229;-74
2023/03/01 10:24:13;;;;;;;14.03;12.50;;;16.80;45.30;;;;;;10329802;28;20738;-76
2023/03/01 10:29:15;;;;;;;13.97;11.87;;;16.70;45.10;;;;;;10361953;28;20227;-72
2023/03/01 10:34:34;;;;;;;17.40;11.80;;;16.30;44.80;;;;;;10331236;28;20211;-76
2023/03/01 10:39:35;;;;;;;13.53;11.97;;;16.80;44.70;;;;;;10327975;28;20229;-76
2023/03/01 10:44:46;;;;;;;16.83;12.73;;;16.70;43.40;;;;;;10344973;28;20315;-76
2023/03/01 10:50:18;;;;;;;16.27;12.57;;;16.00;43.40;;;;;;10339135;28;20228;-76
2023/03/01 10:55:31;;;;;;;14.77;12.03;;;16.10;44.30;;;;;;10338849;28;20212;-76
2023/03/01 11:00:32;;;;;;;13.60;11.80;;;16.90;43.00;;;;;;10332341;28;20225;-76
2023/03/01 11:05:33;;;;;;;16.73;12.30;;;17.50;41.50;;;;;;10333393;28;20251;-76
2023/03/01 11:10:36;;;;;;;13.00;11.50;;;18.10;40.80;;;;;;10331005;28;20376;-75
2023/03/01 11:15:37;;;;;;;19.63;12.37;;;18.00;41.30;;;;;;10334327;28;20253;-74
2023/03/01 11:20:38;;;;;;;13.60;11.37;;;18.50;41.20;;;;;;10323359;28;20227;-74
2023/03/01 11:25:47;;;;;;;13.77;12.07;;;18.50;40.10;;;;;;10329318;28;20232;-75
2023/03/01 11:31:00;;;;;;;12.97;11.67;;;18.80;39.40;;;;;;10322668;28;20233;-73
2023/03/01 11:36:42;;;;;;;13.20;11.77;;;18.60;39.60;;;;;;10331809;28;20256;-75
2023/03/01 11:41:47;;;;;;;14.57;11.43;;;15.30;44.00;;;;;;10305447;28;20229;-74
2023/03/01 11:47:19;;;;;;;15.03;11.20;;;12.80;49.60;;;;;;10329590;28;20304;-73
2023/03/01 11:52:56;;;;;;;14.83;11.53;;;11.10;53.40;;;;;;10330934;28;20222;-75
2023/03/01 11:58:21;;;;;;;15.63;11.77;;;10.50;55.10;;;;;;10317512;28;20324;-75
2023/03/01 12:03:26;;;;;;;19.73;12.23;;;10.00;56.20;;;;;;10329650;28;20239;-75
2023/03/01 12:08:59;;;;;;;13.80;10.40;;;9.80;56.70;;;;;;10328350;28;20272;-75
2023/03/01 12:14:33;;;;;;;13.60;10.53;;;9.80;58.00;;;;;;10336601;28;20249;-75
2023/03/01 12:20:03;;;;;;;13.03;10.43;;;9.70;57.50;;;;;;10327871;28;20229;-77
2023/03/01 12:25:31;;;;;;;17.40;10.43;;;9.60;57.50;;;;;;10368082;28;20216;-76
2023/03/01 12:30:43;;;;;;;15.83;10.27;;;9.60;60.10;;;;;;10335748;28;20237;-75
2023/03/01 12:36:05;;;;;;;12.10;9.17;;;9.50;59.60;;;;;;10363021;28;20260;-79
2023/03/01 12:41:26;;;;;;;10.60;8.47;;;9.50;59.20;;;;;;10390011;28;20636;-79
2023/03/01 12:46:33;;;;;;;15.07;9.43;;;9.30;58.00;;;;;;10333425;28;20224;-76
2023/03/01 12:51:35;;;;;;;12.00;9.23;;;9.10;58.30;;;;;;10357267;28;20230;-77
2023/03/01 12:56:38;;;;;;;10.57;8.70;;;9.30;58.30;;;;;;10361443;28;20210;-76
2023/03/01 13:02:02;;;;;;;14.57;8.97;;;9.20;57.50;;;;;;10376741;28;20217;-75
2023/03/01 13:07:50;;;;;;;81.90;73.33;;;9.10;57.70;;;;;;10376975;28;20232;-76
2023/03/01 13:12:51;;;;;;;10.57;8.23;;;9.20;58.80;;;;;;10362888;28;20220;-76
2023/03/01 13:17:57;;;;;;;11.33;7.80;;;9.30;58.60;;;;;;10391826;28;20221;-76
2023/03/01 13:23:21;;;;;;;11.50;8.97;;;9.30;57.40;;;;;;10379745;28;20312;-78
2023/03/01 13:28:34;;;;;;;15.10;8.93;;;9.20;58.00;;;;;;10373745;28;20615;-77
2023/03/01 13:33:41;;;;;;;12.63;9.70;;;9.30;58.60;;;;;;10373146;28;20256;-78
2023/03/01 13:39:28;;;;;;;12.37;8.70;;;9.30;58.50;;;;;;10380774;28;20215;-77
2023/03/01 13:44:42;;;;;;;12.43;9.17;;;9.30;58.50;;;;;;10372882;28;20220;-75
2023/03/01 13:49:59;;;;;;;14.37;8.37;;;9.10;58.00;;;;;;10376407;28;20328;-74
2023/03/01 13:55:04;;;;;;;9.93;7.43;;;9.10;58.80;;;;;;10387197;28;20921;-77
2023/03/01 14:00:06;;;;;;;10.93;8.67;;;9.30;58.30;;;;;;10377577;28;20225;-78
2023/03/01 14:05:11;;;;;;;12.33;7.70;;;9.20;58.20;;;;;;10368425;28;20765;-69
2023/03/01 14:10:45;;;;;;;12.53;8.20;;;9.20;58.20;;;;;;10356807;28;20217;-79
2023/03/01 14:16:26;;;;;;;10.83;8.43;;;9.20;57.90;;;;;;10366312;28;20352;-76
2023/03/01 14:21:26;;;;;;;12.60;8.00;;;9.10;58.20;;;;;;10294788;28;20215;-77
2023/03/01 14:26:27;;;;;;;10.43;8.67;;;9.20;58.40;;;;;;10365749;28;20718;-75
2023/03/01 14:31:42;;;;;;;11.03;7.33;;;9.10;58.50;;;;;;10363867;28;20269;-80
2023/03/01 14:36:42;;;;;;;10.87;7.80;;;9.20;58.50;;;;;;10385567;28;20719;-76
2023/03/01 14:41:43;;;;;;;11.83;7.90;;;9.10;58.40;;;;;;10373222;28;20216;-77
2023/03/01 14:46:46;;;;;;;10.88;8.15;;;9.00;58.80;;;;;;10372436;28;20439;-78
2023/03/01 14:51:58;;;;;;;10.70;7.33;;;9.00;58.80;;;;;;10388681;28;20664;-79
2023/03/01 14:57:00;;;;;;;13.17;8.33;;;9.00;59.00;;;;;;10364468;28;20220;-80
2023/03/01 15:02:01;;;;;;;11.63;8.37;;;9.00;59.70;;;;;;10389439;28;20224;-75
2023/03/01 15:07:04;;;;;;;12.07;8.60;;;8.90;60.00;;;;;;10371720;28;20232;-75
2023/03/01 15:12:25;;;;;;;12.20;9.13;;;8.90;60.60;;;;;;10366103;28;20578;-78
2023/03/01 15:17:31;;;;;;;12.70;8.57;;;8.80;60.20;;;;;;10348880;28;20648;-77
2023/03/01 15:22:32;;;;;;;16.37;8.50;;;8.80;60.90;;;;;;10363069;28;20234;-79
2023/03/01 15:27:33;;;;;;;12.73;8.30;;;8.80;61.80;;;;;;10362610;28;20740;-69
2023/03/01 15:32:38;;;;;;;11.93;8.37;;;8.70;62.40;;;;;;10362368;28;20940;-76
2023/03/01 15:37:48;;;;;;;10.43;8.27;;;8.70;61.90;;;;;;10364595;28;20244;-77
2023/03/01 15:42:48;;;;;;;16.37;8.80;;;8.60;62.20;;;;;;10367005;28;20227;-76
2023/03/01 15:47:57;;;;;;;11.53;8.40;;;8.50;62.80;;;;;;10384620;28;20229;-76
2023/03/01 15:53:01;;;;;;;10.33;7.67;;;8.50;62.70;;;;;;10373634;28;20213;-75
2023/03/01 15:58:17;;;;;;;12.57;7.93;;;8.50;63.00;;;;;;10375816;28;20229;-78
2023/03/01 16:03:21;;;;;;;11.30;7.63;;;8.40;63.20;;;;;;10373793;28;20216;-76
2023/03/01 16:08:21;;;;;;;10.60;7.50;;;8.40;63.60;;;;;;10382366;28;20239;-75
2023/03/01 16:13:22;;;;;;;11.40;7.73;;;8.30;64.30;;;;;;10378141;28;20213;-75
2023/03/01 16:18:23;;;;;;;12.80;8.47;;;8.20;65.20;;;;;;10370987;28;20226;-75
2023/03/01 16:23:24;;;;;;;10.20;8.07;;;8.10;65.50;;;;;;10372395;28;20243;-75
2023/03/01 16:28:26;;;;;;;13.17;8.47;;;8.10;66.00;;;;;;10344662;28;20230;-76
2023/03/01 16:33:26;;;;;;;12.13;8.97;;;8.00;66.40;;;;;;10322440;28;20214;-77
2023/03/01 16:38:27;;;;;;;14.07;8.23;;;7.90;66.80;;;;;;10330076;28;20243;-77
2023/03/01 16:43:29;;;;;;;13.27;8.83;;;7.70;67.40;;;;;;10337552;28;20245;-78
2023/03/01 16:48:29;;;;;;;11.53;9.23;;;7.60;67.40;;;;;;10331602;28;20236;-79
2023/03/01 16:53:30;;;;;;;11.10;9.03;;;7.50;68.30;;;;;;10331340;28;20213;-76
2023/03/01 16:58:31;;;;;;;13.10;9.50;;;7.40;69.10;;;;;;10331153;28;20270;-78
2023/03/01 17:03:31;;;;;;;13.90;9.73;;;7.20;69.90;;;;;;10324066;28;20232;-77
2023/03/01 17:08:33;;;;;;;14.40;10.20;;;7.10;70.90;;;;;;10348107;28;20344;-80
2023/03/01 17:13:34;;;;;;;14.60;10.07;;;7.00;71.90;;;;;;10331516;28;20225;-79
2023/03/01 17:18:35;;;;;;;15.10;10.47;;;6.90;72.80;;;;;;10338899;28;20240;-78
2023/03/01 17:23:38;;;;;;;14.97;10.00;;;6.80;73.40;;;;;;10330821;28;20228;-79
2023/03/01 17:28:40;;;;;;;14.77;10.03;;;6.60;73.90;;;;;;10329775;28;20731;-79
2023/03/01 17:33:40;;;;;;;15.27;11.10;;;6.50;74.50;;;;;;10342534;28;20311;-78
2023/03/01 17:38:41;;;;;;;16.13;10.83;;;6.40;75.20;;;;;;10380271;28;20331;-77
2023/03/01 17:43:41;;;;;;;16.80;10.80;;;6.40;75.90;;;;;;10372055;28;20308;-79
2023/03/01 17:48:42;;;;;;;14.40;10.50;;;6.20;76.30;;;;;;10373536;28;20223;-79
2023/03/01 17:53:43;;;;;;;14.10;10.33;;;6.10;76.80;;;;;;10370255;28;20231;-78
2023/03/01 17:58:45;;;;;;;15.50;10.73;;;6.10;77.40;;;;;;10370627;28;20220;-78
2023/03/01 18:03:46;;;;;;;14.83;11.30;;;6.00;78.00;;;;;;10369529;28;20291;-73
2023/03/01 18:08:49;;;;;;;18.50;11.80;;;5.90;78.20;;;;;;10369528;28;20256;-74
2023/03/01 18:13:50;;;;;;;14.37;10.93;;;5.80;78.50;;;;;;10370704;28;20218;-75
2023/03/01 18:18:55;;;;;;;16.20;10.43;;;5.80;78.80;;;;;;10364425;28;20258;-73
2023/03/01 18:23:56;;;;;;;15.33;10.50;;;5.70;80.10;;;;;;10379136;28;20229;-73
2023/03/01 18:28:59;;;;;;;14.87;10.43;;;5.60;79.70;;;;;;10371335;28;21090;-73
2023/03/01 18:34:00;;;;;;;15.67;10.50;;;5.50;80.00;;;;;;10369987;28;20228;-73
2023/03/01 18:39:04;;;;;;;13.67;9.90;;;5.50;80.40;;;;;;10341881;28;20586;-76
2023/03/01 18:44:07;;;;;;;15.87;10.03;;;5.40;80.80;;;;;;10367316;28;20229;-75
2023/03/01 18:49:09;;;;;;;18.20;10.90;;;5.30;81.10;;;;;;10392209;28;20283;-76
2023/03/01 18:54:12;;;;;;;16.70;10.10;;;5.30;81.40;;;;;;10377519;28;20217;-76
2023/03/01 18:59:13;;;;;;;16.17;10.73;;;5.20;81.80;;;;;;10377625;28;20225;-77
2023/03/01 19:04:14;;;;;;;15.70;10.33;;;5.10;82.00;;;;;;10385733;28;20236;-75
2023/03/01 19:09:14;;;;;;;16.30;10.90;;;5.10;82.20;;;;;;10375460;28;20316;-75
2023/03/01 19:14:15;;;;;;;13.87;9.93;;;5.00;82.00;;;;;;10376907;28;20542;-76
2023/03/01 19:19:16;;;;;;;14.83;10.50;;;5.00;81.90;;;;;;10373693;28;20471;-75
2023/03/01 19:24:16;;;;;;;14.03;9.97;;;4.90;82.80;;;;;;10376240;28;20271;-76
2023/03/01 19:29:17;;;;;;;14.20;9.67;;;4.80;81.90;;;;;;10375327;28;20316;-75
2023/03/01 19:34:18;;;;;;;16.27;10.27;;;4.80;81.90;;;;;;10376241;28;20222;-76
2023/03/01 19:39:18;;;;;;;14.27;10.10;;;4.70;82.10;;;;;;10375222;28;20272;-75
2023/03/01 19:44:23;;;;;;;13.70;10.50;;;4.70;82.40;;;;;;10375923;28;20221;-75
2023/03/01 19:49:25;;;;;;;15.70;9.43;;;4.60;82.80;;;;;;10374492;28;20611;-76
2023/03/01 19:54:27;;;;;;;16.20;10.20;;;4.60;83.10;;;;;;10369468;28;20231;-72
2023/03/01 19:59:31;;;;;;;14.73;9.73;;;4.50;84.10;;;;;;10363608;28;20271;-70
2023/03/01 20:04:31;;;;;;;17.73;10.27;;;4.40;83.80;;;;;;10362090;28;20782;-71
2023/03/01 20:09:32;;;;;;;16.03;10.13;;;4.30;84.20;;;;;;10365520;28;20221;-72
2023/03/01 20:14:33;;;;;;;13.27;9.87;;;4.30;84.70;;;;;;10372651;28;20213;-73
2023/03/01 20:19:33;;;;;;;14.90;10.13;;;4.30;85.20;;;;;;10379122;28;20269;-72
2023/03/01 20:24:34;;;;;;;16.70;10.93;;;4.10;85.60;;;;;;10370019;28;20599;-73
2023/03/01 20:29:35;;;;;;;16.27;11.47;;;4.10;86.30;;;;;;10374621;28;20222;-72
2023/03/01 20:34:36;;;;;;;15.20;10.57;;;4.00;86.70;;;;;;10378084;28;20813;-72
2023/03/01 20:39:37;;;;;;;15.97;11.23;;;4.00;87.10;;;;;;10375837;28;20244;-72
2023/03/01 20:44:43;;;;;;;14.97;10.60;;;3.90;87.60;;;;;;10365500;28;20578;-73
2023/03/01 20:49:43;;;;;;;17.60;11.13;;;3.90;88.00;;;;;;10374705;28;20252;-72
2023/03/01 20:54:45;;;;;;;16.80;10.47;;;3.80;88.60;;;;;;10396778;28;20303;-73
2023/03/01 20:59:46;;;;;;;14.33;9.83;;;3.70;89.10;;;;;;10383694;28;20232;-72
2023/03/01 21:04:46;;;;;;;15.40;11.03;;;3.70;89.60;;;;;;10373562;28;20224;-73
2023/03/01 21:09:47;;;;;;;17.30;11.20;;;3.60;90.10;;;;;;10392772;28;20223;-73
2023/03/01 21:14:47;;;;;;;17.60;11.53;;;3.60;90.50;;;;;;10376462;28;20558;-74
2023/03/01 21:19:49;;;;;;;17.77;10.60;;;3.50;90.80;;;;;;10373549;28;20237;-74
2023/03/01 21:24:50;;;;;;;19.13;11.33;;;3.50;91.10;;;;;;10361915;28;20212;-74
2023/03/01 21:29:51;;;;;;;18.03;11.00;;;3.50;91.20;;;;;;10375805;28;20221;-74
2023/03/01 21:34:57;;;;;;;19.03;11.97;;;3.50;91.50;;;;;;10362596;28;20217;-78
2023/03/01 21:39:57;;;;;;;21.50;12.30;;;3.50;91.70;;;;;;10378717;28;20272;-74
2023/03/01 21:44:58;;;;;;;18.60;12.67;;;3.50;92.10;;;;;;10382453;28;20279;-72
2023/03/01 21:49:58;;;;;;;20.40;12.50;;;3.40;92.30;;;;;;10374569;28;20221;-80
2023/03/01 21:55:01;;;;;;;21.50;12.97;;;3.40;92.60;;;;;;10375865;28;20211;-79
2023/03/01 22:00:03;;;;;;;16.50;11.20;;;3.40;92.90;;;;;;10380127;28;20901;-82
2023/03/01 22:05:07;;;;;;;17.57;10.90;;;3.40;93.20;;;;;;10370643;28;20217;-73
2023/03/01 22:10:08;;;;;;;20.70;12.23;;;3.30;93.60;;;;;;10334417;28;20732;-79
2023/03/01 22:15:09;;;;;;;19.20;11.80;;;3.30;93.80;;;;;;10362402;28;20702;-77
2023/03/01 22:20:10;;;;;;;19.97;12.47;;;3.20;94.00;;;;;;10376475;28;20220;-77
2023/03/01 22:25:11;;;;;;;16.70;12.20;;;3.20;94.30;;;;;;10354279;28;20256;-81
2023/03/01 22:30:13;;;;;;;17.73;11.83;;;3.10;94.70;;;;;;10358400;28;20206;-83
2023/03/01 22:35:14;;;;;;;16.27;11.67;;;3.00;95.10;;;;;;10341595;28;20182;-81
2023/03/01 22:40:15;;;;;;;18.67;12.13;;;3.00;95.50;;;;;;10345568;28;20261;-79
2023/03/01 22:45:16;;;;;;;18.67;12.53;;;2.90;95.80;;;;;;10336856;28;20186;-80
2023/03/01 22:50:16;;;;;;;21.37;12.17;;;2.90;96.10;;;;;;10338796;28;20308;-80
2023/03/01 22:55:17;;;;;;;18.43;11.80;;;2.90;96.40;;;;;;10339063;28;20543;-78
2023/03/01 23:00:20;;;;;;;21.10;12.20;;;2.90;96.60;;;;;;10339008;28;20301;-78
2023/03/01 23:05:21;;;;;;;19.83;11.60;;;2.90;96.90;;;;;;10346681;28;20202;-77
2023/03/01 23:10:22;;;;;;;21.20;12.33;;;2.80;97.20;;;;;;10330632;28;20245;-75
2023/03/01 23:15:22;;;;;;;22.00;12.70;;;2.80;97.50;;;;;;10337291;28;20185;-76
2023/03/01 23:20:23;;;;;;;23.63;12.60;;;2.80;98.00;;;;;;10328557;28;20628;-78
2023/03/01 23:25:24;;;;;;;20.37;11.93;;;2.70;98.40;;;;;;10330649;28;20233;-76
2023/03/01 23:30:24;;;;;;;18.87;12.20;;;2.70;98.60;;;;;;10335653;28;20260;-73
2023/03/01 23:35:26;;;;;;;18.93;11.57;;;2.70;98.80;;;;;;10332563;28;20578;-73
2023/03/01 23:40:26;;;;;;;21.17;11.83;;;2.60;99.00;;;;;;10336685;28;20190;-74
2023/03/01 23:45:27;;;;;;;21.47;11.80;;;2.60;99.40;;;;;;10332027;28;20222;-75
2023/03/01 23:50:27;;;;;;;16.60;11.07;;;2.60;99.60;;;;;;10328082;28;20242;-76
2023/03/01 23:55:29;;;;;;;20.27;11.90;;;2.50;99.80;;;;;;10325912;28;20693;-76
